Explorer — DHRP — position and weather

sailwx.info

Track history (hours):
 
Tides and Currents Weather Stations Pressure Air Temp Water Temp Dewpoint Dewpoint Depression Visibility Wind Speed Wind Dir Waves Ship Positions

Explorer

Last reported at 2016-Jul-25 08:34 UTC. Time now 2016-Jul-27 17:16 UTC.
Position N 38°11' E 022°32'.

Length 41 m; draft 3 m.

Type: Pleasure craft. MMSI: 211293610.

Date/timePositionNaut miles runAvg speedWind from/ knotsBaromVisibWave heightAir tempDewpointWater temp
2016-Jul-25 08:34N 38°11' E 022°32'11 8.7
2016-Jul-25 07:19N 38°05' E 022°43'17 6.2
2016-Jul-25 04:33N 37°55' E 023°01'0 0.0
2016-Jul-25 03:33N 37°55' E 023°01'0 0.0
2016-Jul-25 02:33N 37°55' E 023°01'0 0.0
2016-Jul-25 01:33N 37°55' E 023°01'0 0.0
2016-Jul-25 00:30N 37°55' E 023°01'0 0.0
2016-Jul-24 20:30N 37°55' E 023°01'0 0.0
2016-Jul-24 19:24N 37°55' E 023°01'0 0.0
2016-Jul-24 14:31N 37°55' E 023°01'2 2.0
2016-Jul-24 13:33N 37°54' E 023°03'8 8.1
2016-Jul-24 12:33N 37°53' E 023°13'8 7.9
2016-Jul-24 11:33N 37°52' E 023°23'7 6.7
2016-Jul-24 10:33N 37°54' E 023°32'4 4.3
2016-Jul-24 09:33N 37°58' E 023°34'0 0.0
2016-Jul-24 08:30N 37°58' E 023°34'0 0.0
2016-Jul-24 07:33N 37°58' E 023°34'0 0.0
2016-Jul-24 06:33N 37°58' E 023°34'0 0.0
2016-Jul-24 05:33N 37°58' E 023°34'0 0.0
2016-Jul-24 04:33N 37°58' E 023°34'  
Track history (hours):
 
Tides and Currents Weather Stations Pressure Air Temp Water Temp Dewpoint Dewpoint Depression Visibility Wind Speed Wind Dir Waves Ship Positions

Explorer

Last reported at 2016-Jul-25 08:34 UTC. Time now 2016-Jul-27 17:16 UTC.
Position N 38°11' E 022°32'.

Length 41 m; draft 3 m.

Type: Pleasure craft. MMSI: 211293610.

Date/timePositionNaut miles runAvg speedWind from/ knotsBaromVisibWave heightAir tempDewpointWater temp
2016-Jul-25 08:34N 38°11' E 022°32'11 8.7
2016-Jul-25 07:19N 38°05' E 022°43'17 6.2
2016-Jul-25 04:33N 37°55' E 023°01'0 0.0
2016-Jul-25 03:33N 37°55' E 023°01'0 0.0
2016-Jul-25 02:33N 37°55' E 023°01'0 0.0
2016-Jul-25 01:33N 37°55' E 023°01'0 0.0
2016-Jul-25 00:30N 37°55' E 023°01'0 0.0
2016-Jul-24 20:30N 37°55' E 023°01'0 0.0
2016-Jul-24 19:24N 37°55' E 023°01'0 0.0
2016-Jul-24 14:31N 37°55' E 023°01'2 2.0
2016-Jul-24 13:33N 37°54' E 023°03'8 8.1
2016-Jul-24 12:33N 37°53' E 023°13'8 7.9
2016-Jul-24 11:33N 37°52' E 023°23'7 6.7
2016-Jul-24 10:33N 37°54' E 023°32'4 4.3
2016-Jul-24 09:33N 37°58' E 023°34'0 0.0
2016-Jul-24 08:30N 37°58' E 023°34'0 0.0
2016-Jul-24 07:33N 37°58' E 023°34'0 0.0
2016-Jul-24 06:33N 37°58' E 023°34'0 0.0
2016-Jul-24 05:33N 37°58' E 023°34'0 0.0
2016-Jul-24 04:33N 37°58' E 023°34'  

Dump ship's entire track history